sensor_id;sensor_type;location;lat;lon;timestamp;P1;durP1;ratioP1;P2;durP2;ratioP2
77800;SDS011;66991;50.058;14.454;2023-01-24T00:01:55;23.42;;;10.02;;
77800;SDS011;66991;50.058;14.454;2023-01-24T00:04:20;27.40;;;9.98;;
77800;SDS011;66991;50.058;14.454;2023-01-24T00:06:45;25.77;;;10.32;;
77800;SDS011;66991;50.058;14.454;2023-01-24T00:09:11;25.45;;;9.88;;
77800;SDS011;66991;50.058;14.454;2023-01-24T00:11:36;19.10;;;9.18;;
77800;SDS011;66991;50.058;14.454;2023-01-24T00:14:01;20.20;;;9.80;;
77800;SDS011;66991;50.058;14.454;2023-01-24T00:16:27;21.67;;;9.50;;
77800;SDS011;66991;50.058;14.454;2023-01-24T00:18:52;22.80;;;9.63;;
77800;SDS011;66991;50.058;14.454;2023-01-24T00:21:19;21.58;;;9.73;;
77800;SDS011;66991;50.058;14.454;2023-01-24T00:23:46;22.10;;;9.63;;
77800;SDS011;66991;50.058;14.454;2023-01-24T00:26:23;19.90;;;9.27;;
77800;SDS011;66991;50.058;14.454;2023-01-24T00:28:49;24.83;;;10.68;;
77800;SDS011;66991;50.058;14.454;2023-01-24T00:31:15;22.98;;;10.40;;
77800;SDS011;66991;50.058;14.454;2023-01-24T00:33:41;27.58;;;10.25;;
77800;SDS011;66991;50.058;14.454;2023-01-24T00:36:06;21.38;;;10.02;;
77800;SDS011;66991;50.058;14.454;2023-01-24T00:38:32;27.70;;;11.63;;
77800;SDS011;66991;50.058;14.454;2023-01-24T00:40:58;26.08;;;10.45;;
77800;SDS011;66991;50.058;14.454;2023-01-24T00:43:23;22.65;;;9.23;;
77800;SDS011;66991;50.058;14.454;2023-01-24T00:45:48;23.23;;;11.18;;
77800;SDS011;66991;50.058;14.454;2023-01-24T00:48:14;22.90;;;9.85;;
77800;SDS011;66991;50.058;14.454;2023-01-24T00:50:40;20.70;;;10.00;;
77800;SDS011;66991;50.058;14.454;2023-01-24T00:53:05;23.45;;;10.75;;
77800;SDS011;66991;50.058;14.454;2023-01-24T00:55:30;21.70;;;9.73;;
77800;SDS011;66991;50.058;14.454;2023-01-24T00:57:56;22.40;;;10.32;;
77800;SDS011;66991;50.058;14.454;2023-01-24T01:00:21;20.55;;;9.00;;
77800;SDS011;66991;50.058;14.454;2023-01-24T01:02:48;22.88;;;10.40;;
77800;SDS011;66991;50.058;14.454;2023-01-24T01:05:14;20.45;;;9.07;;
77800;SDS011;66991;50.058;14.454;2023-01-24T01:07:39;25.83;;;12.00;;
77800;SDS011;66991;50.058;14.454;2023-01-24T01:10:05;23.35;;;10.25;;
77800;SDS011;66991;50.058;14.454;2023-01-24T01:12:30;21.73;;;10.57;;
77800;SDS011;66991;50.058;14.454;2023-01-24T01:14:55;21.20;;;9.45;;
77800;SDS011;66991;50.058;14.454;2023-01-24T01:17:21;23.08;;;9.30;;
77800;SDS011;66991;50.058;14.454;2023-01-24T01:19:50;22.38;;;10.02;;
77800;SDS011;66991;50.058;14.454;2023-01-24T01:22:15;24.08;;;9.65;;
77800;SDS011;66991;50.058;14.454;2023-01-24T01:24:41;25.83;;;11.13;;
77800;SDS011;66991;50.058;14.454;2023-01-24T01:27:06;23.02;;;11.23;;
77800;SDS011;66991;50.058;14.454;2023-01-24T01:29:32;25.35;;;10.77;;
77800;SDS011;66991;50.058;14.454;2023-01-24T01:31:58;26.48;;;10.77;;
77800;SDS011;66991;50.058;14.454;2023-01-24T01:34:24;25.20;;;10.52;;
77800;SDS011;66991;50.058;14.454;2023-01-24T01:36:49;25.48;;;10.48;;
77800;SDS011;66991;50.058;14.454;2023-01-24T01:39:14;31.45;;;11.43;;
77800;SDS011;66991;50.058;14.454;2023-01-24T01:41:40;32.40;;;10.30;;
77800;SDS011;66991;50.058;14.454;2023-01-24T01:47:19;21.63;;;9.52;;
77800;SDS011;66991;50.058;14.454;2023-01-24T01:49:48;22.13;;;9.85;;
77800;SDS011;66991;50.058;14.454;2023-01-24T01:52:16;24.60;;;10.88;;
77800;SDS011;66991;50.058;14.454;2023-01-24T01:54:42;26.13;;;10.45;;
77800;SDS011;66991;50.058;14.454;2023-01-24T01:57:20;23.90;;;10.25;;
77800;SDS011;66991;50.058;14.454;2023-01-24T01:59:51;22.42;;;9.65;;
77800;SDS011;66991;50.058;14.454;2023-01-24T02:02:19;24.38;;;11.18;;
77800;SDS011;66991;50.058;14.454;2023-01-24T02:04:46;22.65;;;10.35;;
77800;SDS011;66991;50.058;14.454;2023-01-24T02:07:19;24.33;;;10.85;;
77800;SDS011;66991;50.058;14.454;2023-01-24T02:12:14;23.48;;;9.55;;
77800;SDS011;66991;50.058;14.454;2023-01-24T02:14:46;23.20;;;10.13;;
77800;SDS011;66991;50.058;14.454;2023-01-24T02:17:32;23.50;;;10.90;;
77800;SDS011;66991;50.058;14.454;2023-01-24T02:20:09;26.27;;;11.27;;
77800;SDS011;66991;50.058;14.454;2023-01-24T02:27:55;21.63;;;9.15;;
77800;SDS011;66991;50.058;14.454;2023-01-24T02:30:21;25.02;;;9.77;;
77800;SDS011;66991;50.058;14.454;2023-01-24T02:32:46;23.38;;;10.73;;
77800;SDS011;66991;50.058;14.454;2023-01-24T02:35:25;26.17;;;11.05;;
77800;SDS011;66991;50.058;14.454;2023-01-24T02:37:56;23.27;;;9.95;;
77800;SDS011;66991;50.058;14.454;2023-01-24T02:40:23;24.67;;;10.95;;
77800;SDS011;66991;50.058;14.454;2023-01-24T02:42:50;25.58;;;11.45;;
77800;SDS011;66991;50.058;14.454;2023-01-24T02:45:16;22.67;;;9.93;;
77800;SDS011;66991;50.058;14.454;2023-01-24T02:47:49;26.92;;;11.23;;
77800;SDS011;66991;50.058;14.454;2023-01-24T02:50:17;27.83;;;11.80;;
77800;SDS011;66991;50.058;14.454;2023-01-24T02:52:44;24.23;;;10.45;;
77800;SDS011;66991;50.058;14.454;2023-01-24T02:55:29;26.63;;;10.55;;
77800;SDS011;66991;50.058;14.454;2023-01-24T02:57:55;27.60;;;11.43;;
77800;SDS011;66991;50.058;14.454;2023-01-24T03:00:34;24.45;;;10.45;;
77800;SDS011;66991;50.058;14.454;2023-01-24T03:03:00;27.40;;;10.55;;
77800;SDS011;66991;50.058;14.454;2023-01-24T03:05:25;25.58;;;10.45;;
77800;SDS011;66991;50.058;14.454;2023-01-24T03:07:50;25.25;;;11.43;;
77800;SDS011;66991;50.058;14.454;2023-01-24T03:10:17;22.42;;;9.95;;
77800;SDS011;66991;50.058;14.454;2023-01-24T03:12:42;24.08;;;10.52;;
77800;SDS011;66991;50.058;14.454;2023-01-24T03:15:27;23.85;;;9.32;;
77800;SDS011;66991;50.058;14.454;2023-01-24T03:18:11;23.77;;;9.30;;
77800;SDS011;66991;50.058;14.454;2023-01-24T03:23:39;21.27;;;9.25;;
77800;SDS011;66991;50.058;14.454;2023-01-24T03:26:22;22.13;;;8.70;;
77800;SDS011;66991;50.058;14.454;2023-01-24T03:29:07;23.70;;;9.27;;
77800;SDS011;66991;50.058;14.454;2023-01-24T03:31:51;27.20;;;10.25;;
77800;SDS011;66991;50.058;14.454;2023-01-24T03:37:19;26.83;;;11.05;;
77800;SDS011;66991;50.058;14.454;2023-01-24T03:40:05;22.65;;;9.52;;
77800;SDS011;66991;50.058;14.454;2023-01-24T03:42:34;25.75;;;10.38;;
77800;SDS011;66991;50.058;14.454;2023-01-24T03:45:00;22.60;;;10.10;;
77800;SDS011;66991;50.058;14.454;2023-01-24T03:47:25;27.75;;;11.65;;
77800;SDS011;66991;50.058;14.454;2023-01-24T03:49:50;27.23;;;11.25;;
77800;SDS011;66991;50.058;14.454;2023-01-24T03:52:34;28.88;;;10.65;;
77800;SDS011;66991;50.058;14.454;2023-01-24T03:55:00;25.65;;;10.82;;
77800;SDS011;66991;50.058;14.454;2023-01-24T03:57:26;24.98;;;10.43;;
77800;SDS011;66991;50.058;14.454;2023-01-24T03:59:52;22.73;;;10.38;;
77800;SDS011;66991;50.058;14.454;2023-01-24T04:02:18;22.08;;;9.57;;
77800;SDS011;66991;50.058;14.454;2023-01-24T04:04:43;26.45;;;9.90;;
77800;SDS011;66991;50.058;14.454;2023-01-24T04:07:32;24.48;;;10.88;;
77800;SDS011;66991;50.058;14.454;2023-01-24T04:09:57;24.38;;;11.07;;
77800;SDS011;66991;50.058;14.454;2023-01-24T04:12:23;24.42;;;10.48;;
77800;SDS011;66991;50.058;14.454;2023-01-24T04:14:49;22.38;;;10.15;;
77800;SDS011;66991;50.058;14.454;2023-01-24T04:17:14;25.27;;;10.23;;
77800;SDS011;66991;50.058;14.454;2023-01-24T04:19:39;26.08;;;11.00;;
77800;SDS011;66991;50.058;14.454;2023-01-24T04:22:05;23.38;;;10.10;;
77800;SDS011;66991;50.058;14.454;2023-01-24T04:24:30;25.08;;;9.77;;
77800;SDS011;66991;50.058;14.454;2023-01-24T04:26:55;26.02;;;10.00;;
77800;SDS011;66991;50.058;14.454;2023-01-24T04:29:21;25.23;;;9.88;;
77800;SDS011;66991;50.058;14.454;2023-01-24T04:31:46;22.63;;;9.48;;
77800;SDS011;66991;50.058;14.454;2023-01-24T04:34:11;21.27;;;9.68;;
77800;SDS011;66991;50.058;14.454;2023-01-24T04:36:37;24.73;;;10.68;;
77800;SDS011;66991;50.058;14.454;2023-01-24T04:39:02;28.38;;;11.52;;
77800;SDS011;66991;50.058;14.454;2023-01-24T04:41:27;24.80;;;10.63;;
77800;SDS011;66991;50.058;14.454;2023-01-24T04:43:53;22.42;;;9.77;;
77800;SDS011;66991;50.058;14.454;2023-01-24T04:46:18;26.40;;;11.27;;
77800;SDS011;66991;50.058;14.454;2023-01-24T04:48:43;26.20;;;11.65;;
77800;SDS011;66991;50.058;14.454;2023-01-24T04:51:09;27.45;;;10.98;;
77800;SDS011;66991;50.058;14.454;2023-01-24T04:53:37;25.40;;;10.07;;
77800;SDS011;66991;50.058;14.454;2023-01-24T04:56:03;23.48;;;10.02;;
77800;SDS011;66991;50.058;14.454;2023-01-24T04:58:28;26.90;;;10.70;;
77800;SDS011;66991;50.058;14.454;2023-01-24T05:00:54;22.90;;;10.00;;
77800;SDS011;66991;50.058;14.454;2023-01-24T05:03:19;28.02;;;11.07;;
77800;SDS011;66991;50.058;14.454;2023-01-24T05:05:48;25.67;;;10.00;;
77800;SDS011;66991;50.058;14.454;2023-01-24T05:08:14;24.15;;;10.00;;
77800;SDS011;66991;50.058;14.454;2023-01-24T05:10:39;24.85;;;10.48;;
77800;SDS011;66991;50.058;14.454;2023-01-24T05:13:04;25.83;;;11.65;;
77800;SDS011;66991;50.058;14.454;2023-01-24T05:15:30;24.75;;;9.95;;
77800;SDS011;66991;50.058;14.454;2023-01-24T05:17:55;24.92;;;10.55;;
77800;SDS011;66991;50.058;14.454;2023-01-24T05:20:21;26.15;;;10.23;;
77800;SDS011;66991;50.058;14.454;2023-01-24T05:22:46;26.80;;;12.02;;
77800;SDS011;66991;50.058;14.454;2023-01-24T05:25:14;28.40;;;11.02;;
77800;SDS011;66991;50.058;14.454;2023-01-24T05:27:40;30.02;;;11.05;;
77800;SDS011;66991;50.058;14.454;2023-01-24T05:30:05;25.33;;;10.32;;
77800;SDS011;66991;50.058;14.454;2023-01-24T05:32:31;24.85;;;10.48;;
77800;SDS011;66991;50.058;14.454;2023-01-24T05:34:57;27.73;;;9.90;;
77800;SDS011;66991;50.058;14.454;2023-01-24T05:37:22;24.92;;;10.05;;
77800;SDS011;66991;50.058;14.454;2023-01-24T05:39:47;25.55;;;9.77;;
77800;SDS011;66991;50.058;14.454;2023-01-24T05:42:13;24.08;;;10.32;;
77800;SDS011;66991;50.058;14.454;2023-01-24T05:44:38;22.42;;;9.15;;
77800;SDS011;66991;50.058;14.454;2023-01-24T05:47:03;23.35;;;9.93;;
77800;SDS011;66991;50.058;14.454;2023-01-24T05:49:29;27.95;;;11.18;;
77800;SDS011;66991;50.058;14.454;2023-01-24T05:51:54;22.90;;;10.27;;
77800;SDS011;66991;50.058;14.454;2023-01-24T05:54:19;24.40;;;10.60;;
77800;SDS011;66991;50.058;14.454;2023-01-24T05:56:45;27.90;;;10.73;;
77800;SDS011;66991;50.058;14.454;2023-01-24T05:59:10;27.40;;;11.68;;
77800;SDS011;66991;50.058;14.454;2023-01-24T06:01:35;28.20;;;12.10;;
77800;SDS011;66991;50.058;14.454;2023-01-24T06:04:00;26.58;;;9.85;;
77800;SDS011;66991;50.058;14.454;2023-01-24T06:06:26;25.65;;;9.88;;
77800;SDS011;66991;50.058;14.454;2023-01-24T06:08:51;24.50;;;9.85;;
77800;SDS011;66991;50.058;14.454;2023-01-24T06:11:22;23.85;;;9.82;;
77800;SDS011;66991;50.058;14.454;2023-01-24T06:13:49;20.95;;;8.70;;
77800;SDS011;66991;50.058;14.454;2023-01-24T06:16:18;25.38;;;9.32;;
77800;SDS011;66991;50.058;14.454;2023-01-24T06:18:45;16.42;;;8.23;;
77800;SDS011;66991;50.058;14.454;2023-01-24T06:24:02;23.90;;;9.35;;
77800;SDS011;66991;50.058;14.454;2023-01-24T06:26:30;22.00;;;8.82;;
77800;SDS011;66991;50.058;14.454;2023-01-24T06:28:56;19.85;;;9.13;;
77800;SDS011;66991;50.058;14.454;2023-01-24T06:31:36;22.70;;;9.25;;
77800;SDS011;66991;50.058;14.454;2023-01-24T06:37:01;21.92;;;8.80;;
77800;SDS011;66991;50.058;14.454;2023-01-24T06:39:29;19.90;;;8.90;;
77800;SDS011;66991;50.058;14.454;2023-01-24T06:41:55;22.05;;;9.32;;
77800;SDS011;66991;50.058;14.454;2023-01-24T06:44:21;21.95;;;10.18;;
77800;SDS011;66991;50.058;14.454;2023-01-24T06:46:46;22.15;;;9.02;;
77800;SDS011;66991;50.058;14.454;2023-01-24T06:49:12;27.10;;;10.45;;
77800;SDS011;66991;50.058;14.454;2023-01-24T06:51:37;23.55;;;11.07;;
77800;SDS011;66991;50.058;14.454;2023-01-24T06:54:03;24.15;;;9.90;;
77800;SDS011;66991;50.058;14.454;2023-01-24T06:56:28;24.08;;;10.20;;
77800;SDS011;66991;50.058;14.454;2023-01-24T06:58:53;21.67;;;8.73;;
77800;SDS011;66991;50.058;14.454;2023-01-24T07:01:19;22.27;;;9.55;;
77800;SDS011;66991;50.058;14.454;2023-01-24T07:03:44;20.35;;;9.50;;
77800;SDS011;66991;50.058;14.454;2023-01-24T07:06:09;18.67;;;8.90;;
77800;SDS011;66991;50.058;14.454;2023-01-24T07:08:34;22.25;;;9.55;;
77800;SDS011;66991;50.058;14.454;2023-01-24T07:11:00;20.63;;;9.77;;
77800;SDS011;66991;50.058;14.454;2023-01-24T07:13:25;22.88;;;9.35;;
77800;SDS011;66991;50.058;14.454;2023-01-24T07:15:50;24.83;;;10.68;;
77800;SDS011;66991;50.058;14.454;2023-01-24T07:18:16;21.63;;;9.38;;
77800;SDS011;66991;50.058;14.454;2023-01-24T07:20:42;24.17;;;10.45;;
77800;SDS011;66991;50.058;14.454;2023-01-24T07:23:16;22.58;;;9.48;;
77800;SDS011;66991;50.058;14.454;2023-01-24T07:25:45;25.92;;;9.63;;
77800;SDS011;66991;50.058;14.454;2023-01-24T07:28:10;22.88;;;9.75;;
77800;SDS011;66991;50.058;14.454;2023-01-24T07:30:36;19.63;;;8.65;;
77800;SDS011;66991;50.058;14.454;2023-01-24T07:33:01;22.77;;;9.52;;
77800;SDS011;66991;50.058;14.454;2023-01-24T07:35:27;22.20;;;10.25;;
77800;SDS011;66991;50.058;14.454;2023-01-24T07:37:52;27.45;;;10.35;;
77800;SDS011;66991;50.058;14.454;2023-01-24T07:40:17;22.75;;;9.65;;
77800;SDS011;66991;50.058;14.454;2023-01-24T07:42:43;21.58;;;9.40;;
77800;SDS011;66991;50.058;14.454;2023-01-24T07:45:08;23.20;;;9.45;;
77800;SDS011;66991;50.058;14.454;2023-01-24T07:47:34;24.98;;;9.73;;
77800;SDS011;66991;50.058;14.454;2023-01-24T07:49:59;24.77;;;10.15;;
77800;SDS011;66991;50.058;14.454;2023-01-24T07:52:24;23.35;;;9.82;;
77800;SDS011;66991;50.058;14.454;2023-01-24T07:54:50;21.83;;;9.30;;
77800;SDS011;66991;50.058;14.454;2023-01-24T07:57:15;24.55;;;11.38;;
77800;SDS011;66991;50.058;14.454;2023-01-24T07:59:41;23.75;;;10.43;;
77800;SDS011;66991;50.058;14.454;2023-01-24T08:02:08;21.98;;;10.05;;
77800;SDS011;66991;50.058;14.454;2023-01-24T08:04:34;24.63;;;10.52;;
77800;SDS011;66991;50.058;14.454;2023-01-24T08:07:00;23.33;;;10.57;;
77800;SDS011;66991;50.058;14.454;2023-01-24T08:09:46;20.42;;;8.90;;
77800;SDS011;66991;50.058;14.454;2023-01-24T08:12:13;22.60;;;9.75;;
77800;SDS011;66991;50.058;14.454;2023-01-24T08:14:39;24.05;;;9.32;;
77800;SDS011;66991;50.058;14.454;2023-01-24T08:17:04;22.90;;;9.85;;
77800;SDS011;66991;50.058;14.454;2023-01-24T08:19:30;24.58;;;9.18;;
77800;SDS011;66991;50.058;14.454;2023-01-24T08:21:56;27.23;;;9.75;;
77800;SDS011;66991;50.058;14.454;2023-01-24T08:24:21;22.08;;;9.48;;
77800;SDS011;66991;50.058;14.454;2023-01-24T08:26:47;19.83;;;9.02;;
77800;SDS011;66991;50.058;14.454;2023-01-24T08:29:14;20.98;;;9.40;;
77800;SDS011;66991;50.058;14.454;2023-01-24T08:31:39;23.38;;;9.25;;
77800;SDS011;66991;50.058;14.454;2023-01-24T08:34:05;21.33;;;8.77;;
77800;SDS011;66991;50.058;14.454;2023-01-24T08:36:30;22.25;;;10.18;;
77800;SDS011;66991;50.058;14.454;2023-01-24T08:38:55;18.40;;;8.32;;
77800;SDS011;66991;50.058;14.454;2023-01-24T08:41:21;21.33;;;10.23;;
77800;SDS011;66991;50.058;14.454;2023-01-24T08:43:46;22.73;;;9.95;;
77800;SDS011;66991;50.058;14.454;2023-01-24T08:46:11;23.38;;;9.73;;
77800;SDS011;66991;50.058;14.454;2023-01-24T08:48:37;16.90;;;8.27;;
77800;SDS011;66991;50.058;14.454;2023-01-24T08:51:05;21.90;;;9.80;;
77800;SDS011;66991;50.058;14.454;2023-01-24T08:53:32;19.85;;;8.57;;
77800;SDS011;66991;50.058;14.454;2023-01-24T08:55:57;23.17;;;9.10;;
77800;SDS011;66991;50.058;14.454;2023-01-24T08:58:23;23.48;;;9.45;;
77800;SDS011;66991;50.058;14.454;2023-01-24T09:00:48;20.25;;;9.60;;
77800;SDS011;66991;50.058;14.454;2023-01-24T09:03:14;20.38;;;9.35;;
77800;SDS011;66991;50.058;14.454;2023-01-24T09:05:41;21.30;;;8.23;;
77800;SDS011;66991;50.058;14.454;2023-01-24T09:08:06;24.08;;;10.43;;
77800;SDS011;66991;50.058;14.454;2023-01-24T09:10:32;23.85;;;9.82;;
77800;SDS011;66991;50.058;14.454;2023-01-24T09:12:57;24.83;;;9.50;;
77800;SDS011;66991;50.058;14.454;2023-01-24T09:15:22;23.65;;;9.10;;
77800;SDS011;66991;50.058;14.454;2023-01-24T09:17:48;21.65;;;9.73;;
77800;SDS011;66991;50.058;14.454;2023-01-24T09:20:13;19.33;;;8.68;;
77800;SDS011;66991;50.058;14.454;2023-01-24T09:22:39;24.27;;;10.00;;
77800;SDS011;66991;50.058;14.454;2023-01-24T09:25:05;25.33;;;9.75;;
77800;SDS011;66991;50.058;14.454;2023-01-24T09:27:32;22.27;;;9.63;;
77800;SDS011;66991;50.058;14.454;2023-01-24T09:29:58;23.38;;;9.70;;
77800;SDS011;66991;50.058;14.454;2023-01-24T09:32:23;21.70;;;9.23;;
77800;SDS011;66991;50.058;14.454;2023-01-24T09:34:48;19.98;;;9.20;;
77800;SDS011;66991;50.058;14.454;2023-01-24T09:37:18;21.80;;;9.68;;
77800;SDS011;66991;50.058;14.454;2023-01-24T09:39:44;23.33;;;9.52;;
77800;SDS011;66991;50.058;14.454;2023-01-24T09:47:42;22.13;;;9.50;;
77800;SDS011;66991;50.058;14.454;2023-01-24T09:53:02;20.38;;;9.18;;
77800;SDS011;66991;50.058;14.454;2023-01-24T09:55:29;18.23;;;8.52;;
77800;SDS011;66991;50.058;14.454;2023-01-24T10:02:55;19.80;;;8.80;;
77800;SDS011;66991;50.058;14.454;2023-01-24T10:05:28;20.77;;;9.20;;
77800;SDS011;66991;50.058;14.454;2023-01-24T10:08:11;20.52;;;9.90;;
77800;SDS011;66991;50.058;14.454;2023-01-24T10:10:40;26.27;;;9.23;;
77800;SDS011;66991;50.058;14.454;2023-01-24T10:13:24;21.98;;;9.50;;
77800;SDS011;66991;50.058;14.454;2023-01-24T10:21:56;23.60;;;9.75;;
77800;SDS011;66991;50.058;14.454;2023-01-24T10:24:28;20.20;;;8.25;;
77800;SDS011;66991;50.058;14.454;2023-01-24T10:26:57;17.92;;;8.35;;
77800;SDS011;66991;50.058;14.454;2023-01-24T10:29:25;21.25;;;8.90;;
77800;SDS011;66991;50.058;14.454;2023-01-24T10:31:59;21.00;;;9.63;;
77800;SDS011;66991;50.058;14.454;2023-01-24T10:36:58;23.02;;;9.40;;
77800;SDS011;66991;50.058;14.454;2023-01-24T10:39:27;31.75;;;13.65;;
77800;SDS011;66991;50.058;14.454;2023-01-24T10:41:52;23.92;;;10.23;;
77800;SDS011;66991;50.058;14.454;2023-01-24T10:44:25;24.25;;;10.07;;
77800;SDS011;66991;50.058;14.454;2023-01-24T10:50:32;25.98;;;10.68;;
77800;SDS011;66991;50.058;14.454;2023-01-24T10:52:40;25.10;;;9.55;;
77800;SDS011;66991;50.058;14.454;2023-01-24T10:57:49;27.80;;;11.05;;
77800;SDS011;66991;50.058;14.454;2023-01-24T11:00:18;26.13;;;11.18;;
77800;SDS011;66991;50.058;14.454;2023-01-24T11:02:55;25.90;;;10.45;;
77800;SDS011;66991;50.058;14.454;2023-01-24T11:05:24;21.25;;;8.98;;
77800;SDS011;66991;50.058;14.454;2023-01-24T11:07:51;24.48;;;9.80;;
77800;SDS011;66991;50.058;14.454;2023-01-24T11:15:17;25.17;;;10.45;;
77800;SDS011;66991;50.058;14.454;2023-01-24T11:17:45;25.60;;;11.27;;
77800;SDS011;66991;50.058;14.454;2023-01-24T11:20:53;28.13;;;11.20;;
77800;SDS011;66991;50.058;14.454;2023-01-24T11:25:50;24.95;;;11.18;;
77800;SDS011;66991;50.058;14.454;2023-01-24T11:28:27;27.38;;;11.85;;
77800;SDS011;66991;50.058;14.454;2023-01-24T11:30:58;25.92;;;11.40;;
77800;SDS011;66991;50.058;14.454;2023-01-24T11:36:03;26.23;;;11.30;;
77800;SDS011;66991;50.058;14.454;2023-01-24T11:38:40;24.83;;;10.60;;
77800;SDS011;66991;50.058;14.454;2023-01-24T11:41:14;25.02;;;10.85;;
77800;SDS011;66991;50.058;14.454;2023-01-24T11:48:55;22.15;;;10.02;;
77800;SDS011;66991;50.058;14.454;2023-01-24T11:51:36;24.10;;;10.35;;
77800;SDS011;66991;50.058;14.454;2023-01-24T11:56:53;21.95;;;9.30;;
77800;SDS011;66991;50.058;14.454;2023-01-24T12:04:40;23.05;;;10.43;;
77800;SDS011;66991;50.058;14.454;2023-01-24T12:10:22;20.38;;;8.80;;
77800;SDS011;66991;50.058;14.454;2023-01-24T12:15:58;22.17;;;9.00;;
77800;SDS011;66991;50.058;14.454;2023-01-24T12:21:16;20.35;;;9.57;;
77800;SDS011;66991;50.058;14.454;2023-01-24T12:23:47;23.45;;;8.57;;
77800;SDS011;66991;50.058;14.454;2023-01-24T12:26:17;20.90;;;8.70;;
77800;SDS011;66991;50.058;14.454;2023-01-24T12:34:09;22.55;;;8.70;;
77800;SDS011;66991;50.058;14.454;2023-01-24T12:37:17;21.58;;;9.00;;
77800;SDS011;66991;50.058;14.454;2023-01-24T12:45:28;16.60;;;8.20;;
77800;SDS011;66991;50.058;14.454;2023-01-24T12:48:01;18.95;;;8.43;;
77800;SDS011;66991;50.058;14.454;2023-01-24T12:50:34;19.13;;;8.32;;
77800;SDS011;66991;50.058;14.454;2023-01-24T13:00:52;17.23;;;8.68;;
77800;SDS011;66991;50.058;14.454;2023-01-24T13:03:28;18.00;;;7.65;;
77800;SDS011;66991;50.058;14.454;2023-01-24T13:08:56;20.10;;;8.15;;
77800;SDS011;66991;50.058;14.454;2023-01-24T13:11:26;19.20;;;8.80;;
77800;SDS011;66991;50.058;14.454;2023-01-24T13:33:48;25.20;;;10.50;;
77800;SDS011;66991;50.058;14.454;2023-01-24T13:36:21;19.60;;;8.38;;
77800;SDS011;66991;50.058;14.454;2023-01-24T13:38:48;24.52;;;10.07;;
77800;SDS011;66991;50.058;14.454;2023-01-24T13:41:15;22.65;;;9.98;;
77800;SDS011;66991;50.058;14.454;2023-01-24T13:51:55;16.70;;;8.23;;
77800;SDS011;66991;50.058;14.454;2023-01-24T13:59:33;19.13;;;9.02;;
77800;SDS011;66991;50.058;14.454;2023-01-24T14:02:01;19.58;;;8.75;;
77800;SDS011;66991;50.058;14.454;2023-01-24T14:04:39;19.13;;;8.35;;
77800;SDS011;66991;50.058;14.454;2023-01-24T14:07:18;19.00;;;8.93;;
77800;SDS011;66991;50.058;14.454;2023-01-24T14:09:56;23.55;;;10.43;;
77800;SDS011;66991;50.058;14.454;2023-01-24T14:12:23;23.23;;;9.93;;
77800;SDS011;66991;50.058;14.454;2023-01-24T14:15:04;23.55;;;9.88;;
77800;SDS011;66991;50.058;14.454;2023-01-24T14:20:04;20.77;;;9.77;;
77800;SDS011;66991;50.058;14.454;2023-01-24T14:22:39;25.95;;;11.45;;
77800;SDS011;66991;50.058;14.454;2023-01-24T14:30:59;20.23;;;8.43;;
77800;SDS011;66991;50.058;14.454;2023-01-24T14:33:34;20.38;;;8.95;;
77800;SDS011;66991;50.058;14.454;2023-01-24T14:41:40;20.60;;;8.30;;
77800;SDS011;66991;50.058;14.454;2023-01-24T14:47:03;20.58;;;8.57;;
77800;SDS011;66991;50.058;14.454;2023-01-24T14:49:31;20.30;;;8.35;;
77800;SDS011;66991;50.058;14.454;2023-01-24T14:52:01;18.73;;;8.98;;
77800;SDS011;66991;50.058;14.454;2023-01-24T14:54:28;25.05;;;10.25;;
77800;SDS011;66991;50.058;14.454;2023-01-24T14:56:53;26.40;;;10.55;;
77800;SDS011;66991;50.058;14.454;2023-01-24T14:59:19;25.65;;;11.88;;
77800;SDS011;66991;50.058;14.454;2023-01-24T15:01:48;24.63;;;10.80;;
77800;SDS011;66991;50.058;14.454;2023-01-24T15:04:25;26.45;;;10.90;;
77800;SDS011;66991;50.058;14.454;2023-01-24T15:07:11;21.30;;;8.63;;
77800;SDS011;66991;50.058;14.454;2023-01-24T15:09:38;23.10;;;10.25;;
77800;SDS011;66991;50.058;14.454;2023-01-24T15:12:11;27.65;;;10.98;;
77800;SDS011;66991;50.058;14.454;2023-01-24T15:14:38;26.45;;;10.80;;
77800;SDS011;66991;50.058;14.454;2023-01-24T15:17:12;25.20;;;9.82;;
77800;SDS011;66991;50.058;14.454;2023-01-24T15:19:44;28.05;;;11.00;;
77800;SDS011;66991;50.058;14.454;2023-01-24T15:22:16;24.17;;;10.77;;
77800;SDS011;66991;50.058;14.454;2023-01-24T15:24:53;26.08;;;10.07;;
77800;SDS011;66991;50.058;14.454;2023-01-24T15:27:21;29.17;;;12.02;;
77800;SDS011;66991;50.058;14.454;2023-01-24T15:32:58;26.25;;;11.05;;
77800;SDS011;66991;50.058;14.454;2023-01-24T15:36:01;24.30;;;10.27;;
77800;SDS011;66991;50.058;14.454;2023-01-24T15:38:29;24.30;;;10.10;;
77800;SDS011;66991;50.058;14.454;2023-01-24T15:49:36;25.33;;;9.85;;
77800;SDS011;66991;50.058;14.454;2023-01-24T15:54:31;28.70;;;11.27;;
77800;SDS011;66991;50.058;14.454;2023-01-24T15:56:57;29.50;;;11.55;;
77800;SDS011;66991;50.058;14.454;2023-01-24T15:59:25;28.33;;;11.55;;
77800;SDS011;66991;50.058;14.454;2023-01-24T16:01:50;29.60;;;12.45;;
77800;SDS011;66991;50.058;14.454;2023-01-24T16:04:16;25.88;;;11.48;;
77800;SDS011;66991;50.058;14.454;2023-01-24T16:06:43;26.08;;;11.27;;
77800;SDS011;66991;50.058;14.454;2023-01-24T16:09:08;29.60;;;12.38;;
77800;SDS011;66991;50.058;14.454;2023-01-24T16:11:37;28.10;;;12.45;;
77800;SDS011;66991;50.058;14.454;2023-01-24T16:14:04;27.50;;;12.07;;
77800;SDS011;66991;50.058;14.454;2023-01-24T16:16:30;30.70;;;12.32;;
77800;SDS011;66991;50.058;14.454;2023-01-24T16:18:56;29.85;;;11.82;;
77800;SDS011;66991;50.058;14.454;2023-01-24T16:21:21;30.00;;;13.35;;
77800;SDS011;66991;50.058;14.454;2023-01-24T16:23:48;30.23;;;13.35;;
77800;SDS011;66991;50.058;14.454;2023-01-24T16:26:18;28.30;;;11.00;;
77800;SDS011;66991;50.058;14.454;2023-01-24T16:28:47;27.55;;;12.43;;
77800;SDS011;66991;50.058;14.454;2023-01-24T16:31:12;28.27;;;11.77;;
77800;SDS011;66991;50.058;14.454;2023-01-24T16:33:37;30.42;;;14.10;;
77800;SDS011;66991;50.058;14.454;2023-01-24T16:36:03;30.23;;;13.27;;
77800;SDS011;66991;50.058;14.454;2023-01-24T16:38:29;30.50;;;12.35;;
77800;SDS011;66991;50.058;14.454;2023-01-24T16:40:55;34.30;;;13.02;;
77800;SDS011;66991;50.058;14.454;2023-01-24T16:43:21;28.67;;;12.07;;
77800;SDS011;66991;50.058;14.454;2023-01-24T16:45:47;31.98;;;13.98;;
77800;SDS011;66991;50.058;14.454;2023-01-24T16:48:14;34.10;;;12.93;;
77800;SDS011;66991;50.058;14.454;2023-01-24T16:50:40;30.27;;;12.05;;
77800;SDS011;66991;50.058;14.454;2023-01-24T16:53:06;32.05;;;13.30;;
77800;SDS011;66991;50.058;14.454;2023-01-24T16:55:33;33.35;;;13.25;;
77800;SDS011;66991;50.058;14.454;2023-01-24T16:57:59;35.75;;;13.95;;
77800;SDS011;66991;50.058;14.454;2023-01-24T17:00:24;33.20;;;13.68;;
77800;SDS011;66991;50.058;14.454;2023-01-24T17:02:50;33.70;;;14.68;;
77800;SDS011;66991;50.058;14.454;2023-01-24T17:05:16;33.20;;;13.55;;
77800;SDS011;66991;50.058;14.454;2023-01-24T17:07:41;35.03;;;14.25;;
77800;SDS011;66991;50.058;14.454;2023-01-24T17:10:07;37.00;;;14.73;;
77800;SDS011;66991;50.058;14.454;2023-01-24T17:12:33;31.75;;;13.50;;